Winside, Nebraska
Current Conditions -  °F | °C
As of 11:15 PM on Tuesday 25 Nov 2014 (Local Time) from KLCG Reporting Station
Light Rain Light Rain  
Wind Chill: 33°   Ceiling: 2900
Heat Index: 37°   Visibility: 10mi
Dew Point: 34°   Wind: 6mph
Humidity: 87%   Direction: 290°WNW
Pressure: 29.81"   Gusts: NA
Location:  42.18°N, 97.18°W
Report Text: KLCG 260515Z AUTO 29005KT 10SM -RA SCT019 BKN029 OVC036 03/01 A2981 RMK AO2 T00300010
Loading
Personal Weather Stations






























Interactive Weather Map New forecast layout! Learn more

10-Day Weather Forecast

Advertisements
Track Severe Weather on mobile